createdAt,value
2019-03-30T00:00:29.076Z,59.86
2019-03-30T00:03:38.418Z,59.77
2019-03-30T00:06:58.247Z,59.83
2019-03-30T00:10:08.068Z,60.06
2019-03-30T00:13:17.487Z,60.04
2019-03-30T00:16:26.960Z,60.21
2019-03-30T00:19:36.367Z,60.45
2019-03-30T00:22:56.016Z,60.55
2019-03-30T00:26:05.663Z,60.63
2019-03-30T00:29:15.078Z,60.70
2019-03-30T00:32:24.525Z,60.78
2019-03-30T00:35:34.024Z,60.82
2019-03-30T00:38:53.760Z,60.63
2019-03-30T00:42:04.318Z,60.64
2019-03-30T00:45:13.681Z,60.70
2019-03-30T00:48:23.141Z,60.82
2019-03-30T00:51:42.870Z,60.94
2019-03-30T00:54:52.357Z,61.13
2019-03-30T00:58:01.906Z,61.23
2019-03-30T01:01:11.662Z,61.24
2019-03-30T01:04:21.008Z,61.20
2019-03-30T01:07:30.456Z,61.28
2019-03-30T01:10:39.899Z,61.35
2019-03-30T01:13:59.817Z,61.25
2019-03-30T01:17:09.665Z,61.39
2019-03-30T01:20:18.970Z,61.37
2019-03-30T01:23:28.406Z,61.30
2019-03-30T01:26:48.691Z,61.31
2019-03-30T01:29:59.686Z,61.38
2019-03-30T01:33:09.156Z,61.37
2019-03-30T01:36:18.992Z,61.33
2019-03-30T01:39:28.423Z,61.36
2019-03-30T01:42:48.345Z,61.35
2019-03-30T01:45:57.875Z,61.29
2019-03-30T01:49:07.212Z,61.23
2019-03-30T01:52:16.741Z,61.17
2019-03-30T01:55:26.071Z,61.24
2019-03-30T01:58:45.794Z,61.23
2019-03-30T02:01:56.523Z,61.39
2019-03-30T02:05:06.276Z,61.33
2019-03-30T02:08:25.949Z,61.41
2019-03-30T02:11:35.368Z,61.45
2019-03-30T02:14:44.811Z,61.44
2019-03-30T02:18:04.584Z,61.62
2019-03-30T02:21:14.201Z,61.77
2019-03-30T02:24:23.548Z,61.84
2019-03-30T02:27:33.417Z,61.94
2019-03-30T02:30:42.769Z,62.01
2019-03-30T02:33:52.508Z,62.07
2019-03-30T02:37:01.826Z,61.98
2019-03-30T02:40:21.475Z,61.99
2019-03-30T02:43:30.953Z,62.06
2019-03-30T02:46:51.228Z,62.12
2019-03-30T02:50:00.686Z,62.09
2019-03-30T02:53:10.232Z,62.17
2019-03-30T02:56:19.775Z,62.29
2019-03-30T02:59:29.216Z,62.41
2019-03-30T03:02:48.985Z,62.47
2019-03-30T03:05:58.849Z,62.45
2019-03-30T03:09:10.574Z,62.55
2019-03-30T03:12:20.000Z,62.69
2019-03-30T03:15:29.657Z,62.72
2019-03-30T03:18:50.051Z,62.72
2019-03-30T03:21:59.390Z,62.84
2019-03-30T03:25:09.049Z,63.10
2019-03-30T03:28:18.604Z,63.31
2019-03-30T03:31:28.063Z,63.16
2019-03-30T03:34:47.845Z,63.28
2019-03-30T03:37:57.365Z,63.42
2019-03-30T03:41:06.736Z,63.51
2019-03-30T03:44:16.954Z,63.47
2019-03-30T03:47:36.796Z,63.34
2019-03-30T03:50:49.159Z,63.38
2019-03-30T03:53:58.803Z,63.29
2019-03-30T03:57:20.996Z,63.36
2019-03-30T04:00:30.715Z,63.45
2019-03-30T04:03:41.601Z,63.41
2019-03-30T04:06:53.344Z,63.39
2019-03-30T04:10:06.542Z,63.59
2019-03-30T04:13:17.276Z,63.62
2019-03-30T04:16:27.997Z,63.68
2019-03-30T04:19:37.445Z,63.88
2019-03-30T04:22:46.882Z,63.95
2019-03-30T04:25:56.325Z,64.08
2019-03-30T04:29:06.773Z,64.18
2019-03-30T04:32:26.730Z,64.15
2019-03-30T04:35:36.189Z,64.22
2019-03-30T04:38:45.573Z,64.25
2019-03-30T04:42:05.467Z,64.29
2019-03-30T04:45:15.036Z,64.37
2019-03-30T04:48:24.475Z,64.56
2019-03-30T04:51:39.816Z,64.68
2019-03-30T04:54:49.317Z,64.91
2019-03-30T04:58:01.411Z,64.92
2019-03-30T05:01:10.969Z,64.90
2019-03-30T05:04:20.421Z,64.96
2019-03-30T05:07:30.838Z,65.11
2019-03-30T05:10:40.173Z,65.18
2019-03-30T05:14:00.598Z,65.29
2019-03-30T05:17:10.244Z,65.23
2019-03-30T05:20:19.703Z,65.19
2019-03-30T05:23:29.202Z,65.32
2019-03-30T05:26:48.884Z,65.57
2019-03-30T05:29:58.537Z,65.57
2019-03-30T05:33:18.987Z,65.65
2019-03-30T05:36:28.315Z,65.82
2019-03-30T05:39:37.675Z,65.88
2019-03-30T05:42:47.340Z,65.88
2019-03-30T05:45:56.761Z,65.44
2019-03-30T05:49:06.210Z,65.41
2019-03-30T05:52:25.932Z,65.12
2019-03-30T05:55:37.126Z,65.08
2019-03-30T05:58:46.610Z,65.10
2019-03-30T06:01:55.956Z,64.94
2019-03-30T06:05:15.768Z,64.94
2019-03-30T06:08:25.236Z,65.13
2019-03-30T06:11:34.663Z,64.99
2019-03-30T06:14:44.196Z,64.26
2019-03-30T06:17:53.633Z,64.30
2019-03-30T06:21:13.566Z,64.16
2019-03-30T06:24:22.947Z,64.06
2019-03-30T06:27:32.294Z,63.81
2019-03-30T06:30:52.097Z,62.99
2019-03-30T06:34:01.459Z,62.58
2019-03-30T06:37:10.783Z,62.03
2019-03-30T06:40:30.646Z,61.57
2019-03-30T06:43:39.999Z,61.25
2019-03-30T06:46:49.352Z,61.55
2019-03-30T06:49:58.721Z,60.92
2019-03-30T06:53:08.089Z,59.67
2019-03-30T06:56:19.110Z,58.98
2019-03-30T06:59:38.885Z,58.10
2019-03-30T07:02:48.612Z,57.05
2019-03-30T07:05:58.300Z,56.08
2019-03-30T07:09:08.856Z,55.42
2019-03-30T07:12:21.369Z,55.84
2019-03-30T07:15:34.086Z,55.29
2019-03-30T07:18:45.378Z,54.83
2019-03-30T07:21:54.732Z,54.30
2019-03-30T07:25:04.092Z,53.95
2019-03-30T07:28:13.667Z,53.33
2019-03-30T07:31:35.916Z,53.29
2019-03-30T07:34:45.315Z,53.23
2019-03-30T07:37:54.973Z,52.59
2019-03-30T07:41:04.333Z,52.25
2019-03-30T07:44:13.706Z,51.65
2019-03-30T07:47:23.540Z,50.93
2019-03-30T07:50:32.909Z,50.63
2019-03-30T07:53:44.721Z,48.38
2019-03-30T07:57:04.139Z,47.67
2019-03-30T08:00:06.367Z,46.10
2019-03-30T08:03:17.342Z,44.73
2019-03-30T08:06:26.705Z,43.69
2019-03-30T08:09:46.456Z,42.96
2019-03-30T08:12:55.837Z,42.29
2019-03-30T08:16:05.268Z,42.39
2019-03-30T08:19:25.060Z,42.31
2019-03-30T08:22:34.535Z,42.66
2019-03-30T08:25:45.317Z,42.20
2019-03-30T08:28:55.673Z,39.95
2019-03-30T08:32:07.685Z,40.48
2019-03-30T08:35:17.056Z,40.68
2019-03-30T08:38:26.415Z,37.39
2019-03-30T08:41:36.796Z,36.95
2019-03-30T08:44:46.227Z,35.51
2019-03-30T08:48:06.727Z,34.92
2019-03-30T08:51:26.979Z,34.00
2019-03-30T08:54:36.595Z,34.42
2019-03-30T08:57:46.387Z,35.16
2019-03-30T09:00:55.897Z,35.74
2019-03-30T09:04:05.402Z,36.13
2019-03-30T09:07:14.880Z,34.97
2019-03-30T09:10:24.259Z,35.13
2019-03-30T09:13:44.055Z,37.58
2019-03-30T09:16:53.525Z,38.26
2019-03-30T09:20:02.907Z,37.95
2019-03-30T09:23:22.605Z,38.57
2019-03-30T09:26:31.946Z,39.32
2019-03-30T09:29:41.444Z,39.31
2019-03-30T09:33:01.213Z,38.41
2019-03-30T09:36:10.701Z,36.80
2019-03-30T09:39:20.172Z,36.32
2019-03-30T09:42:29.596Z,35.00
2019-03-30T09:45:38.974Z,34.15
2019-03-30T09:48:48.345Z,34.20
2019-03-30T09:51:57.697Z,33.98
2019-03-30T09:55:07.904Z,33.54
2019-03-30T09:58:17.375Z,32.64
2019-03-30T10:01:26.743Z,32.17
2019-03-30T10:04:36.318Z,31.95
2019-03-30T10:07:45.788Z,32.79
2019-03-30T10:10:55.259Z,32.91
2019-03-30T10:14:04.726Z,33.09
2019-03-30T10:17:24.632Z,33.51
2019-03-30T10:20:34.104Z,32.83
2019-03-30T10:23:43.463Z,33.60
2019-03-30T10:27:03.188Z,32.93
2019-03-30T10:30:12.886Z,33.00
2019-03-30T10:33:22.249Z,32.99
2019-03-30T10:36:31.615Z,32.32
2019-03-30T10:39:40.977Z,32.27
2019-03-30T10:42:50.324Z,31.88
2019-03-30T10:45:59.973Z,31.40
2019-03-30T10:49:09.406Z,30.37
2019-03-30T10:52:28.992Z,28.86
2019-03-30T10:55:38.574Z,27.96
2019-03-30T10:58:47.900Z,27.74
2019-03-30T11:02:07.538Z,27.86
2019-03-30T11:05:17.025Z,26.75
2019-03-30T11:08:26.471Z,27.98
2019-03-30T11:11:46.110Z,27.06
2019-03-30T11:14:55.754Z,26.56
2019-03-30T11:18:05.138Z,26.60
2019-03-30T11:21:14.125Z,26.98
2019-03-30T11:24:23.464Z,27.51
2019-03-30T11:27:32.865Z,27.23
2019-03-30T11:30:52.685Z,27.78
2019-03-30T11:34:02.027Z,27.53
2019-03-30T11:37:11.404Z,26.22
2019-03-30T11:40:31.198Z,25.22
2019-03-30T11:43:40.709Z,24.51
2019-03-30T11:46:50.071Z,24.40
2019-03-30T11:50:12.872Z,24.78
2019-03-30T11:53:22.332Z,24.61
2019-03-30T11:56:31.845Z,23.93
2019-03-30T11:59:51.438Z,23.86
2019-03-30T12:03:00.910Z,24.30
2019-03-30T12:06:10.273Z,24.41
2019-03-30T12:09:30.041Z,23.77
2019-03-30T12:12:39.592Z,23.52
2019-03-30T12:15:49.045Z,23.97
2019-03-30T12:19:08.595Z,23.66
2019-03-30T12:22:17.961Z,23.94
2019-03-30T12:25:35.444Z,23.84
2019-03-30T12:28:48.817Z,25.01
2019-03-30T12:31:58.146Z,25.69
2019-03-30T12:35:07.929Z,26.48
2019-03-30T12:38:17.273Z,26.84
2019-03-30T12:41:26.631Z,26.37
2019-03-30T12:44:36.029Z,26.47
2019-03-30T12:47:45.386Z,27.21
2019-03-30T12:50:54.864Z,27.87
2019-03-30T12:54:14.613Z,28.56
2019-03-30T12:57:24.050Z,27.51
2019-03-30T13:00:33.430Z,26.26
2019-03-30T13:03:53.148Z,24.87
2019-03-30T13:07:02.595Z,25.22
2019-03-30T13:10:12.099Z,25.02
2019-03-30T13:13:31.719Z,24.40
2019-03-30T13:16:41.164Z,23.71
2019-03-30T13:19:50.766Z,23.70
2019-03-30T13:23:00.110Z,24.47
2019-03-30T13:26:09.758Z,24.57
2019-03-30T13:29:29.459Z,24.78
2019-03-30T13:32:38.886Z,24.20
2019-03-30T13:35:48.371Z,24.39
2019-03-30T13:39:08.427Z,25.59
2019-03-30T13:42:17.760Z,26.69
2019-03-30T13:45:27.217Z,27.42
2019-03-30T13:48:36.547Z,28.02
2019-03-30T13:51:45.940Z,27.73
2019-03-30T13:54:55.447Z,27.38
2019-03-30T13:58:04.894Z,28.16
2019-03-30T14:01:14.343Z,28.73
2019-03-30T14:04:23.761Z,28.70
2019-03-30T14:07:33.306Z,28.62
2019-03-30T14:10:53.552Z,29.36
2019-03-30T14:14:03.051Z,29.55
2019-03-30T14:17:12.607Z,29.73
2019-03-30T14:20:22.154Z,29.83
2019-03-30T14:23:31.475Z,30.16
2019-03-30T14:26:51.275Z,30.31
2019-03-30T14:30:00.816Z,30.08
2019-03-30T14:33:10.444Z,30.03
2019-03-30T14:36:19.903Z,30.41
2019-03-30T14:39:29.333Z,30.14
2019-03-30T14:42:49.035Z,30.19
2019-03-30T14:45:58.497Z,29.93
2019-03-30T14:49:07.822Z,30.04
2019-03-30T14:52:27.617Z,30.47
2019-03-30T14:55:39.518Z,30.60
2019-03-30T14:58:48.098Z,30.53
2019-03-30T15:02:07.787Z,30.54
2019-03-30T15:05:17.456Z,30.98
2019-03-30T15:08:25.355Z,31.06
2019-03-30T15:11:37.901Z,30.95
2019-03-30T15:14:45.861Z,30.96
2019-03-30T15:18:05.545Z,31.04
2019-03-30T15:21:14.980Z,30.61
2019-03-30T15:24:24.594Z,30.66
2019-03-30T15:27:44.105Z,31.14
2019-03-30T15:30:53.611Z,31.34
2019-03-30T15:34:02.995Z,31.73
2019-03-30T15:37:22.702Z,31.93
2019-03-30T15:40:32.171Z,32.11
2019-03-30T15:43:41.676Z,32.40
2019-03-30T15:46:51.136Z,32.64
2019-03-30T15:50:00.464Z,32.85
2019-03-30T15:53:09.896Z,33.01
2019-03-30T15:56:19.251Z,33.18
2019-03-30T15:59:28.604Z,33.21
2019-03-30T16:02:49.166Z,33.16
2019-03-30T16:05:58.739Z,33.43
2019-03-30T16:09:18.241Z,33.50
2019-03-30T16:12:27.813Z,33.43
2019-03-30T16:15:38.542Z,33.48
2019-03-30T16:18:58.482Z,33.42
2019-03-30T16:22:07.923Z,33.49
2019-03-30T16:25:17.393Z,33.63
2019-03-30T16:28:26.876Z,33.64
2019-03-30T16:31:36.299Z,33.90
2019-03-30T16:34:45.776Z,33.77
2019-03-30T16:37:55.241Z,33.58
2019-03-30T16:41:04.786Z,33.81
2019-03-30T16:44:14.251Z,33.86
2019-03-30T16:47:23.688Z,33.56
2019-03-30T16:50:43.427Z,33.71
2019-03-30T16:53:52.933Z,33.71
2019-03-30T16:57:02.280Z,34.02
2019-03-30T17:00:21.993Z,34.30
2019-03-30T17:03:31.417Z,34.28
2019-03-30T17:06:40.838Z,34.53
2019-03-30T17:10:00.486Z,34.78
2019-03-30T17:13:09.945Z,34.86
2019-03-30T17:16:19.406Z,35.00
2019-03-30T17:19:39.029Z,34.95
2019-03-30T17:22:48.358Z,35.09
2019-03-30T17:25:57.771Z,35.26
2019-03-30T17:29:07.452Z,36.38
2019-03-30T17:32:16.786Z,38.39
2019-03-30T17:35:27.193Z,39.68
2019-03-30T17:38:36.543Z,40.97
2019-03-30T17:41:45.997Z,43.80
2019-03-30T17:44:58.325Z,44.30
2019-03-30T17:48:07.664Z,45.14
2019-03-30T17:51:27.807Z,45.46
2019-03-30T17:54:39.707Z,45.71
2019-03-30T17:58:12.182Z,45.27
2019-03-30T18:01:15.344Z,45.43
2019-03-30T18:04:21.798Z,45.72
2019-03-30T18:07:31.514Z,45.45
2019-03-30T18:10:40.941Z,45.35
2019-03-30T18:13:51.904Z,45.15
2019-03-30T18:17:11.549Z,45.10
2019-03-30T18:20:21.012Z,44.40
2019-03-30T18:23:30.442Z,44.17
2019-03-30T18:26:50.116Z,44.48
2019-03-30T18:29:59.541Z,44.50
2019-03-30T18:33:09.218Z,44.63
2019-03-30T18:36:19.958Z,44.93
2019-03-30T18:39:29.636Z,44.98
2019-03-30T18:42:39.032Z,45.00
2019-03-30T18:45:48.377Z,44.88
2019-03-30T18:48:57.745Z,45.48
2019-03-30T18:52:18.042Z,45.47
2019-03-30T18:55:27.420Z,45.29
2019-03-30T18:58:47.249Z,45.26
2019-03-30T19:01:56.608Z,45.15
2019-03-30T19:05:06.202Z,45.21
2019-03-30T19:08:25.793Z,45.17
2019-03-30T19:11:35.217Z,44.66
2019-03-30T19:14:44.658Z,44.52
2019-03-30T19:18:04.415Z,44.71
2019-03-30T19:21:13.855Z,45.70
2019-03-30T19:24:23.389Z,46.54
2019-03-30T19:27:32.880Z,47.01
2019-03-30T19:30:42.725Z,47.05
2019-03-30T19:33:52.275Z,46.57
2019-03-30T19:37:01.799Z,46.39
2019-03-30T19:40:11.437Z,46.48
2019-03-30T19:43:20.801Z,46.91
2019-03-30T19:46:40.510Z,47.38
2019-03-30T19:49:49.879Z,48.04
2019-03-30T19:52:59.237Z,48.29
2019-03-30T19:56:08.605Z,48.65
2019-03-30T19:59:17.977Z,48.74
2019-03-30T20:02:27.314Z,48.89
2019-03-30T20:05:47.125Z,49.05
2019-03-30T20:08:56.487Z,49.21
2019-03-30T20:12:05.928Z,49.35
2019-03-30T20:15:25.698Z,49.56
2019-03-30T20:18:35.164Z,49.76
2019-03-30T20:21:44.495Z,50.22
2019-03-30T20:25:04.768Z,50.69
2019-03-30T20:28:14.233Z,50.92
2019-03-30T20:31:23.577Z,51.21
2019-03-30T20:34:32.947Z,51.57
2019-03-30T20:37:42.291Z,51.72
2019-03-30T20:41:02.040Z,52.06
2019-03-30T20:44:12.581Z,52.30
2019-03-30T20:47:21.925Z,52.32
2019-03-30T20:50:31.388Z,52.29
2019-03-30T20:53:51.211Z,52.55
2019-03-30T20:57:00.185Z,52.57
2019-03-30T21:00:10.683Z,53.02
2019-03-30T21:03:20.036Z,53.19
2019-03-30T21:06:29.393Z,53.30
2019-03-30T21:09:38.743Z,53.28
2019-03-30T21:12:48.087Z,53.76
2019-03-30T21:15:57.467Z,53.80
2019-03-30T21:19:06.811Z,54.28
2019-03-30T21:22:16.172Z,54.65
2019-03-30T21:25:36.023Z,54.87
2019-03-30T21:28:45.397Z,55.12
2019-03-30T21:31:54.928Z,55.23
2019-03-30T21:35:14.604Z,55.39
2019-03-30T21:38:23.939Z,55.69
2019-03-30T21:41:33.284Z,55.78
2019-03-30T21:44:42.634Z,56.07
2019-03-30T21:47:52.686Z,56.40
2019-03-30T21:51:12.303Z,56.42
2019-03-30T21:54:24.633Z,56.68
2019-03-30T21:57:34.654Z,56.87
2019-03-30T22:00:44.205Z,57.01
2019-03-30T22:03:53.602Z,57.07
2019-03-30T22:07:13.464Z,57.22
2019-03-30T22:10:30.060Z,57.40
2019-03-30T22:13:39.548Z,57.71
2019-03-30T22:16:50.365Z,57.83
2019-03-30T22:19:59.698Z,57.89
2019-03-30T22:23:09.052Z,58.17
2019-03-30T22:26:18.383Z,58.40
2019-03-30T22:29:27.777Z,58.14
2019-03-30T22:32:37.245Z,58.46
2019-03-30T22:35:46.594Z,58.58
2019-03-30T22:39:12.328Z,58.41
2019-03-30T22:42:21.812Z,58.73
2019-03-30T22:45:31.148Z,58.96
2019-03-30T22:48:50.895Z,59.16
2019-03-30T22:52:00.339Z,59.08
2019-03-30T22:55:09.769Z,59.26
2019-03-30T22:58:29.428Z,59.37
2019-03-30T23:01:38.882Z,59.53
2019-03-30T23:04:48.340Z,59.53
2019-03-30T23:08:07.976Z,59.71
2019-03-30T23:11:17.431Z,59.94
2019-03-30T23:14:27.778Z,60.27
2019-03-30T23:17:37.255Z,60.44
2019-03-30T23:20:56.936Z,60.40
2019-03-30T23:24:06.416Z,60.47
2019-03-30T23:27:15.760Z,60.44
2019-03-30T23:30:36.458Z,60.54
2019-03-30T23:33:45.854Z,60.15
2019-03-30T23:36:56.008Z,59.91
2019-03-30T23:40:16.107Z,59.19
2019-03-30T23:43:25.527Z,58.96
2019-03-30T23:46:34.875Z,58.80
2019-03-30T23:49:44.223Z,58.69
2019-03-30T23:52:53.545Z,58.44
2019-03-30T23:56:02.903Z,58.70
2019-03-30T23:59:12.248Z,58.37
